sensor_id;sensor_type;location;lat;lon;timestamp;P1;durP1;ratioP1;P2;durP2;ratioP2
19891;SDS011;10108;50.142;8.724;2023-03-31T00:01:40;16.35;;;8.50;;
19891;SDS011;10108;50.142;8.724;2023-03-31T00:04:10;14.75;;;8.40;;
19891;SDS011;10108;50.142;8.724;2023-03-31T00:06:38;12.30;;;8.20;;
19891;SDS011;10108;50.142;8.724;2023-03-31T00:09:13;12.07;;;8.45;;
19891;SDS011;10108;50.142;8.724;2023-03-31T00:11:47;16.13;;;8.63;;
19891;SDS011;10108;50.142;8.724;2023-03-31T00:14:14;13.88;;;9.07;;
19891;SDS011;10108;50.142;8.724;2023-03-31T00:16:42;14.02;;;8.85;;
19891;SDS011;10108;50.142;8.724;2023-03-31T00:19:10;17.55;;;9.73;;
19891;SDS011;10108;50.142;8.724;2023-03-31T00:21:43;17.55;;;10.07;;
19891;SDS011;10108;50.142;8.724;2023-03-31T00:24:10;13.77;;;10.27;;
19891;SDS011;10108;50.142;8.724;2023-03-31T00:26:37;14.60;;;10.90;;
19891;SDS011;10108;50.142;8.724;2023-03-31T00:29:04;17.05;;;11.43;;
19891;SDS011;10108;50.142;8.724;2023-03-31T00:31:32;14.88;;;11.77;;
19891;SDS011;10108;50.142;8.724;2023-03-31T00:33:59;15.25;;;13.63;;
19891;SDS011;10108;50.142;8.724;2023-03-31T00:36:26;16.02;;;14.40;;
19891;SDS011;10108;50.142;8.724;2023-03-31T00:38:53;18.30;;;15.32;;
19891;SDS011;10108;50.142;8.724;2023-03-31T00:41:20;16.48;;;14.77;;
19891;SDS011;10108;50.142;8.724;2023-03-31T00:49:22;19.30;;;16.08;;
19891;SDS011;10108;50.142;8.724;2023-03-31T00:51:53;21.42;;;15.95;;
19891;SDS011;10108;50.142;8.724;2023-03-31T00:54:22;17.75;;;15.77;;
19891;SDS011;10108;50.142;8.724;2023-03-31T00:56:51;18.80;;;16.45;;
19891;SDS011;10108;50.142;8.724;2023-03-31T00:59:20;20.85;;;17.48;;
19891;SDS011;10108;50.142;8.724;2023-03-31T01:01:52;21.73;;;16.27;;
19891;SDS011;10108;50.142;8.724;2023-03-31T01:04:23;19.58;;;16.58;;
19891;SDS011;10108;50.142;8.724;2023-03-31T01:06:55;23.92;;;16.80;;
19891;SDS011;10108;50.142;8.724;2023-03-31T01:09:28;23.63;;;16.88;;
19891;SDS011;10108;50.142;8.724;2023-03-31T01:12:00;24.55;;;17.33;;
19891;SDS011;10108;50.142;8.724;2023-03-31T01:14:29;21.15;;;17.58;;
19891;SDS011;10108;50.142;8.724;2023-03-31T01:16:56;20.30;;;17.27;;
19891;SDS011;10108;50.142;8.724;2023-03-31T01:19:27;20.30;;;17.52;;
19891;SDS011;10108;50.142;8.724;2023-03-31T01:28:18;19.25;;;17.00;;
19891;SDS011;10108;50.142;8.724;2023-03-31T01:40:05;22.25;;;16.33;;
19891;SDS011;10108;50.142;8.724;2023-03-31T01:48:34;19.05;;;15.27;;
19891;SDS011;10108;50.142;8.724;2023-03-31T01:51:12;18.38;;;15.50;;
19891;SDS011;10108;50.142;8.724;2023-03-31T01:56:45;21.88;;;15.65;;
19891;SDS011;10108;50.142;8.724;2023-03-31T02:02:05;21.10;;;15.20;;
19891;SDS011;10108;50.142;8.724;2023-03-31T02:04:41;16.83;;;14.65;;
19891;SDS011;10108;50.142;8.724;2023-03-31T02:07:26;16.58;;;14.80;;
19891;SDS011;10108;50.142;8.724;2023-03-31T02:09:59;16.85;;;15.02;;
19891;SDS011;10108;50.142;8.724;2023-03-31T02:12:29;17.50;;;14.57;;
19891;SDS011;10108;50.142;8.724;2023-03-31T02:14:57;16.10;;;14.38;;
19891;SDS011;10108;50.142;8.724;2023-03-31T02:17:28;15.82;;;14.20;;
19891;SDS011;10108;50.142;8.724;2023-03-31T02:19:59;18.20;;;14.63;;
19891;SDS011;10108;50.142;8.724;2023-03-31T02:22:31;16.73;;;14.55;;
19891;SDS011;10108;50.142;8.724;2023-03-31T02:25:01;17.80;;;14.38;;
19891;SDS011;10108;50.142;8.724;2023-03-31T02:27:31;16.95;;;14.27;;
19891;SDS011;10108;50.142;8.724;2023-03-31T02:30:02;21.88;;;14.50;;
19891;SDS011;10108;50.142;8.724;2023-03-31T02:32:30;19.90;;;15.18;;
19891;SDS011;10108;50.142;8.724;2023-03-31T02:35:00;17.70;;;14.50;;
19891;SDS011;10108;50.142;8.724;2023-03-31T02:37:27;20.52;;;15.20;;
19891;SDS011;10108;50.142;8.724;2023-03-31T02:39:54;21.63;;;14.88;;
19891;SDS011;10108;50.142;8.724;2023-03-31T02:42:23;18.92;;;14.30;;
19891;SDS011;10108;50.142;8.724;2023-03-31T02:44:51;18.17;;;14.15;;
19891;SDS011;10108;50.142;8.724;2023-03-31T02:47:19;15.27;;;13.45;;
19891;SDS011;10108;50.142;8.724;2023-03-31T02:49:47;20.20;;;12.85;;
19891;SDS011;10108;50.142;8.724;2023-03-31T02:52:34;18.52;;;13.13;;
19891;SDS011;10108;50.142;8.724;2023-03-31T02:58:12;20.70;;;13.02;;
19891;SDS011;10108;50.142;8.724;2023-03-31T03:01:03;15.85;;;13.15;;
19891;SDS011;10108;50.142;8.724;2023-03-31T03:04:06;16.58;;;13.10;;
19891;SDS011;10108;50.142;8.724;2023-03-31T03:06:48;22.27;;;13.15;;
19891;SDS011;10108;50.142;8.724;2023-03-31T03:12:07;17.35;;;13.65;;
19891;SDS011;10108;50.142;8.724;2023-03-31T03:15:27;22.88;;;14.13;;
19891;SDS011;10108;50.142;8.724;2023-03-31T03:17:38;19.65;;;14.32;;
19891;SDS011;10108;50.142;8.724;2023-03-31T03:20:07;21.83;;;14.30;;
19891;SDS011;10108;50.142;8.724;2023-03-31T03:22:35;18.42;;;14.60;;
19891;SDS011;10108;50.142;8.724;2023-03-31T03:25:03;17.92;;;14.07;;
19891;SDS011;10108;50.142;8.724;2023-03-31T03:27:30;19.40;;;14.15;;
19891;SDS011;10108;50.142;8.724;2023-03-31T03:29:57;19.73;;;13.85;;
19891;SDS011;10108;50.142;8.724;2023-03-31T03:32:23;17.33;;;14.52;;
19891;SDS011;10108;50.142;8.724;2023-03-31T03:34:50;27.45;;;14.02;;
19891;SDS011;10108;50.142;8.724;2023-03-31T03:37:16;19.08;;;14.48;;
19891;SDS011;10108;50.142;8.724;2023-03-31T03:39:42;22.38;;;14.07;;
19891;SDS011;10108;50.142;8.724;2023-03-31T03:42:08;17.65;;;14.00;;
19891;SDS011;10108;50.142;8.724;2023-03-31T03:44:34;20.13;;;13.73;;
19891;SDS011;10108;50.142;8.724;2023-03-31T03:47:00;19.27;;;13.68;;
19891;SDS011;10108;50.142;8.724;2023-03-31T03:49:27;23.08;;;14.38;;
19891;SDS011;10108;50.142;8.724;2023-03-31T03:51:53;16.48;;;13.70;;
19891;SDS011;10108;50.142;8.724;2023-03-31T03:54:19;21.10;;;13.82;;
19891;SDS011;10108;50.142;8.724;2023-03-31T03:56:45;18.08;;;14.23;;
19891;SDS011;10108;50.142;8.724;2023-03-31T03:59:12;17.88;;;13.88;;
19891;SDS011;10108;50.142;8.724;2023-03-31T04:01:38;25.67;;;14.43;;
19891;SDS011;10108;50.142;8.724;2023-03-31T04:04:05;25.13;;;14.30;;
19891;SDS011;10108;50.142;8.724;2023-03-31T04:06:31;24.00;;;14.45;;
19891;SDS011;10108;50.142;8.724;2023-03-31T04:08:57;21.23;;;14.48;;
19891;SDS011;10108;50.142;8.724;2023-03-31T04:11:23;21.92;;;14.80;;
19891;SDS011;10108;50.142;8.724;2023-03-31T04:13:50;21.85;;;14.40;;
19891;SDS011;10108;50.142;8.724;2023-03-31T04:16:17;19.05;;;14.70;;
19891;SDS011;10108;50.142;8.724;2023-03-31T04:18:43;28.48;;;14.60;;
19891;SDS011;10108;50.142;8.724;2023-03-31T04:21:09;26.92;;;14.70;;
19891;SDS011;10108;50.142;8.724;2023-03-31T04:23:40;24.00;;;14.68;;
19891;SDS011;10108;50.142;8.724;2023-03-31T04:26:13;21.48;;;14.38;;
19891;SDS011;10108;50.142;8.724;2023-03-31T04:28:41;25.63;;;16.65;;
19891;SDS011;10108;50.142;8.724;2023-03-31T04:31:11;25.40;;;16.38;;
19891;SDS011;10108;50.142;8.724;2023-03-31T04:33:52;22.30;;;16.10;;
19891;SDS011;10108;50.142;8.724;2023-03-31T04:36:19;22.70;;;16.70;;
19891;SDS011;10108;50.142;8.724;2023-03-31T04:38:47;23.63;;;16.55;;
19891;SDS011;10108;50.142;8.724;2023-03-31T04:41:21;20.83;;;16.10;;
19891;SDS011;10108;50.142;8.724;2023-03-31T04:43:48;28.58;;;16.70;;
19891;SDS011;10108;50.142;8.724;2023-03-31T04:46:14;28.40;;;16.23;;
19891;SDS011;10108;50.142;8.724;2023-03-31T04:48:41;26.55;;;15.75;;
19891;SDS011;10108;50.142;8.724;2023-03-31T04:51:07;22.20;;;16.23;;
19891;SDS011;10108;50.142;8.724;2023-03-31T04:53:34;27.40;;;16.98;;
19891;SDS011;10108;50.142;8.724;2023-03-31T04:56:00;23.88;;;16.35;;
19891;SDS011;10108;50.142;8.724;2023-03-31T04:58:27;19.05;;;15.45;;
19891;SDS011;10108;50.142;8.724;2023-03-31T05:00:53;21.23;;;15.27;;
19891;SDS011;10108;50.142;8.724;2023-03-31T05:03:19;20.38;;;15.50;;
19891;SDS011;10108;50.142;8.724;2023-03-31T05:05:46;20.23;;;14.65;;
19891;SDS011;10108;50.142;8.724;2023-03-31T05:08:12;17.27;;;15.13;;
19891;SDS011;10108;50.142;8.724;2023-03-31T05:10:38;25.50;;;14.98;;
19891;SDS011;10108;50.142;8.724;2023-03-31T05:13:04;21.30;;;15.02;;
19891;SDS011;10108;50.142;8.724;2023-03-31T05:15:30;20.45;;;14.93;;
19891;SDS011;10108;50.142;8.724;2023-03-31T05:17:56;23.17;;;15.85;;
19891;SDS011;10108;50.142;8.724;2023-03-31T05:20:23;22.20;;;16.63;;
19891;SDS011;10108;50.142;8.724;2023-03-31T05:22:49;30.75;;;17.10;;
19891;SDS011;10108;50.142;8.724;2023-03-31T05:25:16;33.45;;;17.27;;
19891;SDS011;10108;50.142;8.724;2023-03-31T05:27:46;28.67;;;17.40;;
19891;SDS011;10108;50.142;8.724;2023-03-31T05:30:13;26.50;;;17.70;;
19891;SDS011;10108;50.142;8.724;2023-03-31T05:32:40;23.42;;;17.42;;
19891;SDS011;10108;50.142;8.724;2023-03-31T05:35:07;27.60;;;18.77;;
19891;SDS011;10108;50.142;8.724;2023-03-31T05:37:34;27.17;;;18.73;;
19891;SDS011;10108;50.142;8.724;2023-03-31T05:40:00;23.73;;;18.13;;
19891;SDS011;10108;50.142;8.724;2023-03-31T05:42:29;27.92;;;18.60;;
19891;SDS011;10108;50.142;8.724;2023-03-31T05:44:55;27.38;;;18.65;;
19891;SDS011;10108;50.142;8.724;2023-03-31T05:47:21;20.50;;;17.42;;
19891;SDS011;10108;50.142;8.724;2023-03-31T05:49:48;27.67;;;17.38;;
19891;SDS011;10108;50.142;8.724;2023-03-31T05:52:14;24.20;;;17.88;;
19891;SDS011;10108;50.142;8.724;2023-03-31T05:54:40;23.58;;;17.75;;
19891;SDS011;10108;50.142;8.724;2023-03-31T05:57:07;22.35;;;17.90;;
19891;SDS011;10108;50.142;8.724;2023-03-31T05:59:34;27.75;;;18.08;;
19891;SDS011;10108;50.142;8.724;2023-03-31T06:02:02;27.20;;;18.25;;
19891;SDS011;10108;50.142;8.724;2023-03-31T06:04:28;23.85;;;17.85;;
19891;SDS011;10108;50.142;8.724;2023-03-31T06:06:57;24.60;;;17.73;;
19891;SDS011;10108;50.142;8.724;2023-03-31T06:09:24;22.67;;;17.45;;
19891;SDS011;10108;50.142;8.724;2023-03-31T06:11:51;19.70;;;16.00;;
19891;SDS011;10108;50.142;8.724;2023-03-31T06:14:17;23.45;;;17.02;;
19891;SDS011;10108;50.142;8.724;2023-03-31T06:16:43;20.63;;;16.55;;
19891;SDS011;10108;50.142;8.724;2023-03-31T06:19:12;26.02;;;16.67;;
19891;SDS011;10108;50.142;8.724;2023-03-31T06:21:38;29.17;;;16.90;;
19891;SDS011;10108;50.142;8.724;2023-03-31T06:24:07;23.58;;;17.05;;
19891;SDS011;10108;50.142;8.724;2023-03-31T06:26:34;20.88;;;18.55;;
19891;SDS011;10108;50.142;8.724;2023-03-31T06:29:00;22.08;;;18.20;;
19891;SDS011;10108;50.142;8.724;2023-03-31T06:31:26;25.30;;;16.98;;
19891;SDS011;10108;50.142;8.724;2023-03-31T06:33:53;21.17;;;17.90;;
19891;SDS011;10108;50.142;8.724;2023-03-31T06:36:20;26.00;;;18.02;;
19891;SDS011;10108;50.142;8.724;2023-03-31T06:38:49;26.95;;;19.05;;
19891;SDS011;10108;50.142;8.724;2023-03-31T06:41:18;24.88;;;18.92;;
19891;SDS011;10108;50.142;8.724;2023-03-31T06:43:47;31.98;;;18.60;;
19891;SDS011;10108;50.142;8.724;2023-03-31T06:46:14;20.85;;;18.10;;
19891;SDS011;10108;50.142;8.724;2023-03-31T06:48:41;32.13;;;18.52;;
19891;SDS011;10108;50.142;8.724;2023-03-31T06:51:07;23.67;;;18.60;;
19891;SDS011;10108;50.142;8.724;2023-03-31T06:53:34;28.00;;;18.90;;
19891;SDS011;10108;50.142;8.724;2023-03-31T06:56:01;25.65;;;18.75;;
19891;SDS011;10108;50.142;8.724;2023-03-31T06:58:28;27.13;;;19.50;;
19891;SDS011;10108;50.142;8.724;2023-03-31T07:00:54;24.92;;;18.50;;
19891;SDS011;10108;50.142;8.724;2023-03-31T07:03:20;27.83;;;18.33;;
19891;SDS011;10108;50.142;8.724;2023-03-31T07:05:50;22.83;;;18.38;;
19891;SDS011;10108;50.142;8.724;2023-03-31T07:08:17;24.73;;;18.10;;
19891;SDS011;10108;50.142;8.724;2023-03-31T07:10:44;25.88;;;18.35;;
19891;SDS011;10108;50.142;8.724;2023-03-31T07:13:16;32.47;;;19.08;;
19891;SDS011;10108;50.142;8.724;2023-03-31T07:15:45;27.95;;;18.45;;
19891;SDS011;10108;50.142;8.724;2023-03-31T07:18:12;25.35;;;18.75;;
19891;SDS011;10108;50.142;8.724;2023-03-31T07:20:40;31.27;;;19.73;;
19891;SDS011;10108;50.142;8.724;2023-03-31T07:23:07;25.50;;;19.13;;
19891;SDS011;10108;50.142;8.724;2023-03-31T07:25:34;28.10;;;19.48;;
19891;SDS011;10108;50.142;8.724;2023-03-31T07:28:00;27.48;;;19.23;;
19891;SDS011;10108;50.142;8.724;2023-03-31T07:30:27;24.38;;;19.33;;
19891;SDS011;10108;50.142;8.724;2023-03-31T07:32:53;27.33;;;19.65;;
19891;SDS011;10108;50.142;8.724;2023-03-31T07:35:20;24.88;;;19.15;;
19891;SDS011;10108;50.142;8.724;2023-03-31T07:37:48;23.17;;;19.73;;
19891;SDS011;10108;50.142;8.724;2023-03-31T07:40:16;24.90;;;19.60;;
19891;SDS011;10108;50.142;8.724;2023-03-31T07:42:45;23.95;;;18.83;;
19891;SDS011;10108;50.142;8.724;2023-03-31T07:45:17;35.63;;;19.83;;
19891;SDS011;10108;50.142;8.724;2023-03-31T07:47:44;24.13;;;19.90;;
19891;SDS011;10108;50.142;8.724;2023-03-31T07:50:11;26.02;;;20.15;;
19891;SDS011;10108;50.142;8.724;2023-03-31T07:52:38;22.35;;;19.98;;
19891;SDS011;10108;50.142;8.724;2023-03-31T07:55:05;24.75;;;20.20;;
19891;SDS011;10108;50.142;8.724;2023-03-31T07:57:33;25.63;;;20.38;;
19891;SDS011;10108;50.142;8.724;2023-03-31T08:00:00;22.02;;;19.63;;
19891;SDS011;10108;50.142;8.724;2023-03-31T08:02:37;24.10;;;19.55;;
19891;SDS011;10108;50.142;8.724;2023-03-31T08:05:05;23.25;;;19.50;;
19891;SDS011;10108;50.142;8.724;2023-03-31T08:07:35;24.05;;;18.60;;
19891;SDS011;10108;50.142;8.724;2023-03-31T08:10:04;21.10;;;18.75;;
19891;SDS011;10108;50.142;8.724;2023-03-31T08:12:32;22.10;;;18.73;;
19891;SDS011;10108;50.142;8.724;2023-03-31T08:14:58;26.88;;;19.52;;
19891;SDS011;10108;50.142;8.724;2023-03-31T08:17:25;23.73;;;19.05;;
19891;SDS011;10108;50.142;8.724;2023-03-31T08:19:51;21.35;;;18.42;;
19891;SDS011;10108;50.142;8.724;2023-03-31T08:22:18;23.70;;;19.17;;
19891;SDS011;10108;50.142;8.724;2023-03-31T08:24:44;22.30;;;18.70;;
19891;SDS011;10108;50.142;8.724;2023-03-31T08:27:11;25.77;;;19.70;;
19891;SDS011;10108;50.142;8.724;2023-03-31T08:29:37;20.92;;;18.73;;
19891;SDS011;10108;50.142;8.724;2023-03-31T08:32:04;22.15;;;18.85;;
19891;SDS011;10108;50.142;8.724;2023-03-31T08:34:31;22.90;;;18.67;;
19891;SDS011;10108;50.142;8.724;2023-03-31T08:36:57;30.20;;;18.63;;
19891;SDS011;10108;50.142;8.724;2023-03-31T08:39:23;23.05;;;17.90;;
19891;SDS011;10108;50.142;8.724;2023-03-31T08:41:56;24.05;;;18.38;;
19891;SDS011;10108;50.142;8.724;2023-03-31T08:44:36;22.50;;;17.95;;
19891;SDS011;10108;50.142;8.724;2023-03-31T08:47:25;20.08;;;17.85;;
19891;SDS011;10108;50.142;8.724;2023-03-31T08:49:55;21.60;;;17.60;;
19891;SDS011;10108;50.142;8.724;2023-03-31T08:52:35;19.65;;;16.77;;
19891;SDS011;10108;50.142;8.724;2023-03-31T08:55:07;20.05;;;16.63;;
19891;SDS011;10108;50.142;8.724;2023-03-31T08:58:23;20.60;;;16.67;;
19891;SDS011;10108;50.142;8.724;2023-03-31T09:00:48;20.75;;;16.05;;
19891;SDS011;10108;50.142;8.724;2023-03-31T09:03:23;21.17;;;16.25;;
19891;SDS011;10108;50.142;8.724;2023-03-31T09:06:04;20.55;;;15.20;;
19891;SDS011;10108;50.142;8.724;2023-03-31T09:11:05;17.58;;;15.65;;
19891;SDS011;10108;50.142;8.724;2023-03-31T09:19:31;20.60;;;15.65;;
19891;SDS011;10108;50.142;8.724;2023-03-31T09:22:02;20.08;;;15.20;;
19891;SDS011;10108;50.142;8.724;2023-03-31T09:24:32;18.35;;;14.60;;
19891;SDS011;10108;50.142;8.724;2023-03-31T09:27:13;18.27;;;14.30;;
19891;SDS011;10108;50.142;8.724;2023-03-31T09:29:41;19.20;;;14.45;;
19891;SDS011;10108;50.142;8.724;2023-03-31T09:32:29;17.88;;;13.93;;
19891;SDS011;10108;50.142;8.724;2023-03-31T09:35:41;17.33;;;14.00;;
19891;SDS011;10108;50.142;8.724;2023-03-31T09:37:46;16.83;;;13.20;;
19891;SDS011;10108;50.142;8.724;2023-03-31T09:40:15;16.10;;;13.35;;
19891;SDS011;10108;50.142;8.724;2023-03-31T09:42:44;14.88;;;12.32;;
19891;SDS011;10108;50.142;8.724;2023-03-31T09:45:13;13.88;;;12.38;;
19891;SDS011;10108;50.142;8.724;2023-03-31T09:47:42;16.13;;;11.98;;
19891;SDS011;10108;50.142;8.724;2023-03-31T09:50:11;13.55;;;11.55;;
19891;SDS011;10108;50.142;8.724;2023-03-31T09:55:26;13.25;;;11.90;;
19891;SDS011;10108;50.142;8.724;2023-03-31T09:57:53;15.88;;;11.52;;
19891;SDS011;10108;50.142;8.724;2023-03-31T10:00:20;16.15;;;11.85;;
19891;SDS011;10108;50.142;8.724;2023-03-31T10:02:51;13.65;;;11.18;;
19891;SDS011;10108;50.142;8.724;2023-03-31T10:05:20;13.30;;;10.95;;
19891;SDS011;10108;50.142;8.724;2023-03-31T10:07:50;15.45;;;11.57;;
19891;SDS011;10108;50.142;8.724;2023-03-31T10:10:37;12.13;;;10.40;;
19891;SDS011;10108;50.142;8.724;2023-03-31T10:13:08;15.60;;;11.13;;
19891;SDS011;10108;50.142;8.724;2023-03-31T10:15:36;16.23;;;11.45;;
19891;SDS011;10108;50.142;8.724;2023-03-31T10:18:02;12.40;;;10.35;;
19891;SDS011;10108;50.142;8.724;2023-03-31T10:23:01;14.00;;;10.32;;
19891;SDS011;10108;50.142;8.724;2023-03-31T10:25:40;13.60;;;10.23;;
19891;SDS011;10108;50.142;8.724;2023-03-31T10:28:09;13.85;;;9.73;;
19891;SDS011;10108;50.142;8.724;2023-03-31T10:30:38;16.33;;;10.50;;
19891;SDS011;10108;50.142;8.724;2023-03-31T10:33:10;16.77;;;10.43;;
19891;SDS011;10108;50.142;8.724;2023-03-31T10:35:40;13.18;;;10.43;;
19891;SDS011;10108;50.142;8.724;2023-03-31T10:38:09;34.10;;;19.65;;
19891;SDS011;10108;50.142;8.724;2023-03-31T10:40:39;22.30;;;18.60;;
19891;SDS011;10108;50.142;8.724;2023-03-31T10:43:17;23.30;;;18.63;;
19891;SDS011;10108;50.142;8.724;2023-03-31T10:45:50;19.98;;;18.00;;
19891;SDS011;10108;50.142;8.724;2023-03-31T10:48:23;18.88;;;17.08;;
19891;SDS011;10108;50.142;8.724;2023-03-31T10:50:58;19.13;;;17.02;;
19891;SDS011;10108;50.142;8.724;2023-03-31T10:53:53;18.25;;;16.40;;
19891;SDS011;10108;50.142;8.724;2023-03-31T10:56:38;18.15;;;16.25;;
19891;SDS011;10108;50.142;8.724;2023-03-31T11:04:17;17.08;;;14.98;;
19891;SDS011;10108;50.142;8.724;2023-03-31T11:12:49;15.65;;;13.57;;
19891;SDS011;10108;50.142;8.724;2023-03-31T11:21:05;16.98;;;13.40;;
19891;SDS011;10108;50.142;8.724;2023-03-31T11:23:49;14.80;;;13.40;;
19891;SDS011;10108;50.142;8.724;2023-03-31T11:34:58;14.38;;;12.88;;
19891;SDS011;10108;50.142;8.724;2023-03-31T11:48:45;16.27;;;12.10;;
19891;SDS011;10108;50.142;8.724;2023-03-31T11:51:18;14.60;;;12.43;;
19891;SDS011;10108;50.142;8.724;2023-03-31T11:53:52;21.73;;;12.52;;
19891;SDS011;10108;50.142;8.724;2023-03-31T11:56:22;17.27;;;12.27;;
19891;SDS011;10108;50.142;8.724;2023-03-31T11:58:59;17.58;;;12.02;;
19891;SDS011;10108;50.142;8.724;2023-03-31T12:01:37;17.65;;;12.60;;
19891;SDS011;10108;50.142;8.724;2023-03-31T12:04:34;17.67;;;12.30;;
19891;SDS011;10108;50.142;8.724;2023-03-31T12:09:58;20.40;;;12.05;;
19891;SDS011;10108;50.142;8.724;2023-03-31T12:12:55;23.45;;;12.40;;
19891;SDS011;10108;50.142;8.724;2023-03-31T12:15:42;20.27;;;12.13;;
19891;SDS011;10108;50.142;8.724;2023-03-31T12:18:19;15.65;;;11.90;;
19891;SDS011;10108;50.142;8.724;2023-03-31T12:20:49;21.88;;;11.95;;
19891;SDS011;10108;50.142;8.724;2023-03-31T12:23:21;16.00;;;11.43;;
19891;SDS011;10108;50.142;8.724;2023-03-31T12:28:39;22.98;;;12.95;;
19891;SDS011;10108;50.142;8.724;2023-03-31T12:31:09;20.75;;;13.07;;
19891;SDS011;10108;50.142;8.724;2023-03-31T12:33:43;18.65;;;12.88;;
19891;SDS011;10108;50.142;8.724;2023-03-31T12:36:41;23.50;;;13.70;;
19891;SDS011;10108;50.142;8.724;2023-03-31T12:42:13;15.68;;;14.10;;
19891;SDS011;10108;50.142;8.724;2023-03-31T12:50:33;15.32;;;13.73;;
19891;SDS011;10108;50.142;8.724;2023-03-31T12:53:22;18.30;;;13.18;;
19891;SDS011;10108;50.142;8.724;2023-03-31T12:55:56;14.68;;;13.20;;
19891;SDS011;10108;50.142;8.724;2023-03-31T13:06:10;15.05;;;12.20;;
19891;SDS011;10108;50.142;8.724;2023-03-31T13:08:56;14.30;;;12.18;;
19891;SDS011;10108;50.142;8.724;2023-03-31T13:16:45;14.00;;;11.95;;
19891;SDS011;10108;50.142;8.724;2023-03-31T13:19:24;16.08;;;11.23;;
19891;SDS011;10108;50.142;8.724;2023-03-31T13:21:59;13.57;;;10.98;;
19891;SDS011;10108;50.142;8.724;2023-03-31T13:24:27;15.07;;;10.98;;
19891;SDS011;10108;50.142;8.724;2023-03-31T13:26:56;13.77;;;10.75;;
19891;SDS011;10108;50.142;8.724;2023-03-31T13:29:25;16.00;;;10.85;;
19891;SDS011;10108;50.142;8.724;2023-03-31T13:32:26;12.80;;;10.52;;
19891;SDS011;10108;50.142;8.724;2023-03-31T13:35:00;14.73;;;10.88;;
19891;SDS011;10108;50.142;8.724;2023-03-31T13:48:13;14.98;;;10.50;;
19891;SDS011;10108;50.142;8.724;2023-03-31T14:10:31;9.43;;;8.15;;
19891;SDS011;10108;50.142;8.724;2023-03-31T14:13:07;8.55;;;7.65;;
19891;SDS011;10108;50.142;8.724;2023-03-31T14:18:21;9.93;;;7.70;;
19891;SDS011;10108;50.142;8.724;2023-03-31T14:32:08;9.18;;;7.22;;
19891;SDS011;10108;50.142;8.724;2023-03-31T14:34:46;8.55;;;7.50;;
19891;SDS011;10108;50.142;8.724;2023-03-31T14:37:29;12.63;;;7.45;;
19891;SDS011;10108;50.142;8.724;2023-03-31T14:39:56;8.98;;;6.90;;
19891;SDS011;10108;50.142;8.724;2023-03-31T14:42:28;8.65;;;7.28;;
19891;SDS011;10108;50.142;8.724;2023-03-31T14:45:37;13.15;;;7.40;;
19891;SDS011;10108;50.142;8.724;2023-03-31T14:48:03;13.45;;;7.10;;
19891;SDS011;10108;50.142;8.724;2023-03-31T14:50:45;13.98;;;7.13;;
19891;SDS011;10108;50.142;8.724;2023-03-31T14:53:14;10.23;;;6.57;;
19891;SDS011;10108;50.142;8.724;2023-03-31T14:55:42;11.98;;;6.90;;
19891;SDS011;10108;50.142;8.724;2023-03-31T14:58:12;10.10;;;6.57;;
19891;SDS011;10108;50.142;8.724;2023-03-31T15:00:44;10.32;;;6.22;;
19891;SDS011;10108;50.142;8.724;2023-03-31T15:03:12;9.52;;;6.68;;
19891;SDS011;10108;50.142;8.724;2023-03-31T15:05:40;11.07;;;6.35;;
19891;SDS011;10108;50.142;8.724;2023-03-31T15:08:13;11.85;;;6.40;;
19891;SDS011;10108;50.142;8.724;2023-03-31T15:10:50;9.50;;;6.50;;
19891;SDS011;10108;50.142;8.724;2023-03-31T15:13:20;9.75;;;6.28;;
19891;SDS011;10108;50.142;8.724;2023-03-31T15:15:49;10.10;;;6.18;;
19891;SDS011;10108;50.142;8.724;2023-03-31T15:18:15;11.50;;;6.57;;
19891;SDS011;10108;50.142;8.724;2023-03-31T15:20:42;9.05;;;6.10;;
19891;SDS011;10108;50.142;8.724;2023-03-31T15:23:20;12.75;;;6.40;;
19891;SDS011;10108;50.142;8.724;2023-03-31T15:25:56;12.90;;;7.90;;
19891;SDS011;10108;50.142;8.724;2023-03-31T15:28:27;9.95;;;7.28;;
19891;SDS011;10108;50.142;8.724;2023-03-31T15:30:58;10.70;;;7.40;;
19891;SDS011;10108;50.142;8.724;2023-03-31T15:33:27;7.40;;;6.65;;
19891;SDS011;10108;50.142;8.724;2023-03-31T15:35:58;11.10;;;7.50;;
19891;SDS011;10108;50.142;8.724;2023-03-31T15:38:26;10.00;;;7.28;;
19891;SDS011;10108;50.142;8.724;2023-03-31T15:40:54;9.48;;;7.38;;
19891;SDS011;10108;50.142;8.724;2023-03-31T15:43:28;8.77;;;6.97;;
19891;SDS011;10108;50.142;8.724;2023-03-31T15:45:57;9.45;;;7.10;;
19891;SDS011;10108;50.142;8.724;2023-03-31T15:48:28;11.75;;;7.10;;
19891;SDS011;10108;50.142;8.724;2023-03-31T15:51:04;11.93;;;7.15;;
19891;SDS011;10108;50.142;8.724;2023-03-31T15:53:42;9.93;;;7.28;;
19891;SDS011;10108;50.142;8.724;2023-03-31T15:56:33;11.55;;;7.18;;
19891;SDS011;10108;50.142;8.724;2023-03-31T15:59:22;9.10;;;6.75;;
19891;SDS011;10108;50.142;8.724;2023-03-31T16:01:50;11.60;;;7.07;;
19891;SDS011;10108;50.142;8.724;2023-03-31T16:04:17;11.93;;;7.20;;
19891;SDS011;10108;50.142;8.724;2023-03-31T16:06:44;13.02;;;7.35;;
19891;SDS011;10108;50.142;8.724;2023-03-31T16:11:52;8.20;;;6.82;;
19891;SDS011;10108;50.142;8.724;2023-03-31T16:14:22;11.68;;;6.60;;
19891;SDS011;10108;50.142;8.724;2023-03-31T16:17:03;12.45;;;6.97;;
19891;SDS011;10108;50.142;8.724;2023-03-31T16:19:39;13.07;;;6.35;;
19891;SDS011;10108;50.142;8.724;2023-03-31T16:22:11;12.70;;;6.55;;
19891;SDS011;10108;50.142;8.724;2023-03-31T16:24:43;12.32;;;6.57;;
19891;SDS011;10108;50.142;8.724;2023-03-31T16:27:10;9.95;;;6.00;;
19891;SDS011;10108;50.142;8.724;2023-03-31T16:29:36;12.48;;;6.43;;
19891;SDS011;10108;50.142;8.724;2023-03-31T16:32:13;9.60;;;7.13;;
19891;SDS011;10108;50.142;8.724;2023-03-31T16:34:54;12.40;;;8.23;;
19891;SDS011;10108;50.142;8.724;2023-03-31T16:37:25;12.82;;;7.82;;
19891;SDS011;10108;50.142;8.724;2023-03-31T16:39:52;13.15;;;8.10;;
19891;SDS011;10108;50.142;8.724;2023-03-31T16:42:19;15.35;;;8.38;;
19891;SDS011;10108;50.142;8.724;2023-03-31T16:44:45;11.82;;;8.88;;
19891;SDS011;10108;50.142;8.724;2023-03-31T16:47:12;15.05;;;8.80;;
19891;SDS011;10108;50.142;8.724;2023-03-31T16:49:38;14.85;;;9.15;;
19891;SDS011;10108;50.142;8.724;2023-03-31T16:52:05;15.18;;;9.23;;
19891;SDS011;10108;50.142;8.724;2023-03-31T16:54:34;16.30;;;8.77;;
19891;SDS011;10108;50.142;8.724;2023-03-31T16:57:00;11.18;;;8.63;;
19891;SDS011;10108;50.142;8.724;2023-03-31T16:59:26;17.20;;;8.60;;
19891;SDS011;10108;50.142;8.724;2023-03-31T17:01:52;11.75;;;8.88;;
19891;SDS011;10108;50.142;8.724;2023-03-31T17:04:20;15.23;;;9.52;;
19891;SDS011;10108;50.142;8.724;2023-03-31T17:06:51;18.48;;;9.48;;
19891;SDS011;10108;50.142;8.724;2023-03-31T17:09:29;14.50;;;9.90;;
19891;SDS011;10108;50.142;8.724;2023-03-31T17:12:03;13.32;;;9.60;;
19891;SDS011;10108;50.142;8.724;2023-03-31T17:14:29;13.85;;;10.13;;
19891;SDS011;10108;50.142;8.724;2023-03-31T17:16:55;13.80;;;10.45;;
19891;SDS011;10108;50.142;8.724;2023-03-31T17:19:22;12.07;;;10.48;;
19891;SDS011;10108;50.142;8.724;2023-03-31T17:21:48;14.13;;;10.40;;
19891;SDS011;10108;50.142;8.724;2023-03-31T17:24:15;14.40;;;10.40;;
19891;SDS011;10108;50.142;8.724;2023-03-31T17:26:42;19.17;;;10.80;;
19891;SDS011;10108;50.142;8.724;2023-03-31T17:29:08;22.23;;;11.32;;
19891;SDS011;10108;50.142;8.724;2023-03-31T17:31:34;13.57;;;10.50;;